createdAt,value
2024-01-09T00:02:21.126Z,9.63
2024-01-09T00:04:48.223Z,9.25
2024-01-09T00:07:15.001Z,9.20
2024-01-09T00:09:41.888Z,8.45
2024-01-09T00:12:09.393Z,9.07
2024-01-09T00:14:39.700Z,8.98
2024-01-09T00:17:06.950Z,8.63
2024-01-09T00:19:35.649Z,8.25
2024-01-09T00:22:03.914Z,8.77
2024-01-09T00:24:30.779Z,8.52
2024-01-09T00:26:57.705Z,8.90
2024-01-09T00:29:24.685Z,9.20
2024-01-09T00:31:51.571Z,8.55
2024-01-09T00:34:18.534Z,8.55
2024-01-09T00:36:45.912Z,7.82
2024-01-09T00:39:12.918Z,8.70
2024-01-09T00:41:39.791Z,8.18
2024-01-09T00:44:07.231Z,7.70
2024-01-09T00:46:34.530Z,8.60
2024-01-09T00:49:01.891Z,8.38
2024-01-09T00:51:28.833Z,8.25
2024-01-09T00:53:58.403Z,8.43
2024-01-09T00:56:25.208Z,7.60
2024-01-09T00:58:51.955Z,8.10
2024-01-09T01:01:18.912Z,8.10
2024-01-09T01:03:46.136Z,8.10
2024-01-09T01:06:13.187Z,8.35
2024-01-09T01:08:40.115Z,8.38
2024-01-09T01:11:07.492Z,7.35
2024-01-09T01:13:34.416Z,8.90
2024-01-09T01:16:01.695Z,8.50
2024-01-09T01:18:28.573Z,7.82
2024-01-09T01:21:00.767Z,7.90
2024-01-09T01:23:27.647Z,8.45
2024-01-09T01:25:54.750Z,7.80
2024-01-09T01:28:21.721Z,8.95
2024-01-09T01:30:48.589Z,7.68
2024-01-09T01:33:15.560Z,7.63
2024-01-09T01:35:42.813Z,7.85
2024-01-09T01:38:09.762Z,7.47
2024-01-09T01:40:36.565Z,8.35
2024-01-09T01:43:03.434Z,8.50
2024-01-09T01:45:30.926Z,7.07
2024-01-09T01:47:58.212Z,7.93
2024-01-09T01:50:25.219Z,8.38
2024-01-09T01:52:52.107Z,8.10
2024-01-09T01:55:20.602Z,8.65
2024-01-09T01:57:48.203Z,7.68
2024-01-09T02:00:17.234Z,8.00
2024-01-09T02:02:44.073Z,8.05
2024-01-09T02:05:10.965Z,8.35
2024-01-09T02:07:37.833Z,8.40
2024-01-09T02:10:05.001Z,7.60
2024-01-09T02:12:31.846Z,8.30
2024-01-09T02:14:59.030Z,7.70
2024-01-09T02:17:28.536Z,8.43
2024-01-09T02:19:57.087Z,8.10
2024-01-09T02:22:24.021Z,7.50
2024-01-09T02:24:50.881Z,7.32
2024-01-09T02:27:38.251Z,8.65
2024-01-09T02:30:06.179Z,8.25
2024-01-09T02:32:34.138Z,8.52
2024-01-09T02:35:01.070Z,8.27
2024-01-09T02:37:27.851Z,8.30
2024-01-09T02:39:58.506Z,7.82
2024-01-09T02:42:25.317Z,7.65
2024-01-09T02:44:58.304Z,8.02
2024-01-09T02:47:25.608Z,7.18
2024-01-09T02:49:52.477Z,8.10
2024-01-09T02:52:27.610Z,8.70
2024-01-09T02:54:54.479Z,7.55
2024-01-09T02:57:21.621Z,8.27
2024-01-09T02:59:48.515Z,7.82
2024-01-09T03:02:15.480Z,7.85
2024-01-09T03:04:42.581Z,7.97
2024-01-09T03:07:09.574Z,8.63
2024-01-09T03:09:37.211Z,7.70
2024-01-09T03:12:08.370Z,8.07
2024-01-09T03:14:38.540Z,8.07
2024-01-09T03:17:06.263Z,7.63
2024-01-09T03:19:33.340Z,8.98
2024-01-09T03:22:00.208Z,8.63
2024-01-09T03:24:27.001Z,8.13
2024-01-09T03:26:54.494Z,8.30
2024-01-09T03:29:21.333Z,8.63
2024-01-09T03:31:48.135Z,8.38
2024-01-09T03:34:14.992Z,7.90
2024-01-09T03:36:44.984Z,9.70
2024-01-09T03:39:14.089Z,8.23
2024-01-09T03:41:43.760Z,8.65
2024-01-09T03:44:11.047Z,8.70
2024-01-09T03:46:38.977Z,8.90
2024-01-09T03:49:05.853Z,8.48
2024-01-09T03:51:33.022Z,9.15
2024-01-09T03:53:59.798Z,9.80
2024-01-09T03:56:26.704Z,9.38
2024-01-09T03:58:53.887Z,9.35
2024-01-09T04:01:20.836Z,9.00
2024-01-09T04:03:47.629Z,7.93
2024-01-09T04:06:15.164Z,9.20
2024-01-09T04:08:42.106Z,8.30
2024-01-09T04:11:09.060Z,8.90
2024-01-09T04:13:35.947Z,8.45
2024-01-09T04:16:02.958Z,8.88
2024-01-09T04:18:30.184Z,9.00
2024-01-09T04:21:00.204Z,9.50
2024-01-09T04:23:27.084Z,9.15
2024-01-09T04:25:53.900Z,8.98
2024-01-09T04:28:20.709Z,9.48
2024-01-09T04:30:48.088Z,9.20
2024-01-09T04:33:15.108Z,9.32
2024-01-09T04:35:42.163Z,9.20
2024-01-09T04:38:09.031Z,9.35
2024-01-09T04:40:35.953Z,8.98
2024-01-09T04:43:02.811Z,9.25
2024-01-09T04:45:29.654Z,9.90
2024-01-09T04:47:56.650Z,9.25
2024-01-09T04:50:23.595Z,10.10
2024-01-09T04:52:50.996Z,10.52
2024-01-09T04:55:17.771Z,9.90
2024-01-09T04:57:44.898Z,9.23
2024-01-09T05:00:12.349Z,10.50
2024-01-09T05:02:39.486Z,9.45
2024-01-09T05:05:06.622Z,9.90
2024-01-09T05:07:33.571Z,10.05
2024-01-09T05:10:00.382Z,9.73
2024-01-09T05:12:27.177Z,9.35
2024-01-09T05:14:54.057Z,9.90
2024-01-09T05:17:21.304Z,10.18
2024-01-09T05:19:48.741Z,9.40
2024-01-09T05:22:16.113Z,10.35
2024-01-09T05:24:43.204Z,9.55
2024-01-09T05:27:09.976Z,11.10
2024-01-09T05:29:39.837Z,9.82
2024-01-09T05:32:07.714Z,10.57
2024-01-09T05:34:34.501Z,10.75
2024-01-09T05:37:01.277Z,10.23
2024-01-09T05:39:29.779Z,10.93
2024-01-09T05:41:57.340Z,10.00
2024-01-09T05:44:24.200Z,10.57
2024-01-09T05:46:51.536Z,10.68
2024-01-09T05:49:18.525Z,10.13
2024-01-09T05:51:45.451Z,10.40
2024-01-09T05:54:13.770Z,9.23
2024-01-09T05:56:42.758Z,10.82
2024-01-09T05:59:09.816Z,9.73
2024-01-09T06:01:36.731Z,11.18
2024-01-09T06:04:03.783Z,10.73
2024-01-09T06:06:31.139Z,10.05
2024-01-09T06:08:58.472Z,10.80
2024-01-09T06:11:26.069Z,10.80
2024-01-09T06:13:55.224Z,10.73
2024-01-09T06:16:22.088Z,10.77
2024-01-09T06:18:48.968Z,10.90
2024-01-09T06:21:17.608Z,10.98
2024-01-09T06:23:45.195Z,10.82
2024-01-09T06:26:14.545Z,11.13
2024-01-09T06:28:43.865Z,10.65
2024-01-09T06:31:10.681Z,11.65
2024-01-09T06:33:37.619Z,10.63
2024-01-09T06:36:05.209Z,10.73
2024-01-09T06:38:32.060Z,12.32
2024-01-09T06:40:59.874Z,11.52
2024-01-09T06:43:26.647Z,11.50
2024-01-09T06:45:53.504Z,11.43
2024-01-09T06:48:20.640Z,10.60
2024-01-09T06:50:48.066Z,11.48
2024-01-09T06:53:14.911Z,11.45
2024-01-09T06:55:42.580Z,11.40
2024-01-09T06:58:10.088Z,11.07
2024-01-09T07:00:39.752Z,11.75
2024-01-09T07:03:07.085Z,11.55
2024-01-09T07:05:37.535Z,12.85
2024-01-09T07:08:05.389Z,12.15
2024-01-09T07:10:32.216Z,12.48
2024-01-09T07:15:46.709Z,12.60
2024-01-09T07:18:17.005Z,12.07
2024-01-09T07:23:45.365Z,12.35
2024-01-09T07:26:12.837Z,12.98
2024-01-09T07:28:43.460Z,12.13
2024-01-09T07:31:15.457Z,13.00
2024-01-09T07:33:53.048Z,13.77
2024-01-09T07:36:24.365Z,13.00
2024-01-09T07:39:22.339Z,12.27
2024-01-09T07:41:50.997Z,13.07
2024-01-09T07:44:19.430Z,12.80
2024-01-09T07:46:48.242Z,12.35
2024-01-09T07:49:23.048Z,12.70
2024-01-09T07:51:58.321Z,12.07
2024-01-09T07:54:25.129Z,12.82
2024-01-09T07:56:52.201Z,13.48
2024-01-09T07:59:19.082Z,12.55
2024-01-09T08:01:55.940Z,13.10
2024-01-09T08:04:25.948Z,14.50
2024-01-09T08:06:53.668Z,12.52
2024-01-09T08:09:20.490Z,14.30
2024-01-09T08:11:48.530Z,13.73
2024-01-09T08:14:16.009Z,13.50
2024-01-09T08:16:43.005Z,13.77
2024-01-09T08:19:10.256Z,14.30
2024-01-09T08:21:39.884Z,13.30
2024-01-09T08:24:08.669Z,14.07
2024-01-09T08:26:36.062Z,13.85
2024-01-09T08:29:04.106Z,13.82
2024-01-09T08:31:31.056Z,15.10
2024-01-09T08:33:58.661Z,13.35
2024-01-09T08:36:25.739Z,14.25
2024-01-09T08:38:52.591Z,14.00
2024-01-09T08:41:19.602Z,14.38
2024-01-09T08:43:46.373Z,17.15
2024-01-09T08:46:13.613Z,32.58
2024-01-09T08:48:40.545Z,16.55
2024-01-09T08:53:58.609Z,17.33
2024-01-09T08:56:25.613Z,16.15
2024-01-09T08:58:55.388Z,14.30
2024-01-09T09:01:22.616Z,15.05
2024-01-09T09:03:49.958Z,16.15
2024-01-09T09:06:18.528Z,14.48
2024-01-09T09:08:48.627Z,15.18
2024-01-09T09:11:18.301Z,15.32
2024-01-09T09:13:45.563Z,15.27
2024-01-09T09:16:12.624Z,15.35
2024-01-09T09:18:40.892Z,16.15
2024-01-09T09:21:08.944Z,15.93
2024-01-09T09:23:35.950Z,17.23
2024-01-09T09:26:04.660Z,16.23
2024-01-09T09:28:41.073Z,15.95
2024-01-09T09:31:17.508Z,32.08
2024-01-09T09:33:45.849Z,18.33
2024-01-09T09:36:15.694Z,15.40
2024-01-09T09:38:44.152Z,15.65
2024-01-09T09:41:18.044Z,15.30
2024-01-09T09:43:51.624Z,15.85
2024-01-09T09:46:35.055Z,14.98
2024-01-09T09:49:02.075Z,15.10
2024-01-09T09:51:29.526Z,16.10
2024-01-09T09:54:02.160Z,14.55
2024-01-09T09:56:29.121Z,18.55
2024-01-09T09:58:56.099Z,14.88
2024-01-09T10:01:24.050Z,16.77
2024-01-09T10:03:58.052Z,17.42
2024-01-09T10:06:25.481Z,15.20
2024-01-09T10:08:52.585Z,16.08
2024-01-09T10:11:19.407Z,18.60
2024-01-09T10:13:46.455Z,16.63
2024-01-09T10:16:14.033Z,15.02
2024-01-09T10:18:41.389Z,16.58
2024-01-09T10:21:11.878Z,14.93
2024-01-09T10:23:40.767Z,16.40
2024-01-09T10:26:13.879Z,15.57
2024-01-09T10:28:42.608Z,15.55
2024-01-09T10:31:09.949Z,15.65
2024-01-09T10:33:43.270Z,15.10
2024-01-09T10:36:10.511Z,15.93
2024-01-09T10:38:37.799Z,14.20
2024-01-09T10:41:21.552Z,15.25
2024-01-09T10:43:48.939Z,13.90
2024-01-09T10:46:15.766Z,15.38
2024-01-09T10:48:43.326Z,16.60
2024-01-09T10:51:12.149Z,15.35
2024-01-09T10:53:41.882Z,15.70
2024-01-09T10:56:10.012Z,15.50
2024-01-09T10:58:37.166Z,15.50
2024-01-09T11:01:04.319Z,16.13
2024-01-09T11:03:31.258Z,16.33
2024-01-09T11:06:00.747Z,15.57
2024-01-09T11:08:27.898Z,15.98
2024-01-09T11:10:56.244Z,15.05
2024-01-09T11:13:24.210Z,15.43
2024-01-09T11:15:56.295Z,16.80
2024-01-09T11:18:28.591Z,17.52
2024-01-09T11:21:01.858Z,16.55
2024-01-09T11:23:44.386Z,16.15
2024-01-09T11:26:15.224Z,16.88
2024-01-09T11:28:43.956Z,15.77
2024-01-09T11:31:15.021Z,15.60
2024-01-09T11:33:44.008Z,15.52
2024-01-09T11:36:15.904Z,16.05
2024-01-09T11:38:43.345Z,15.95
2024-01-09T11:41:11.130Z,14.65
2024-01-09T11:44:04.002Z,15.40
2024-01-09T11:46:42.837Z,16.30
2024-01-09T11:49:12.810Z,15.77
2024-01-09T11:51:39.739Z,15.40
2024-01-09T11:54:10.589Z,16.08
2024-01-09T11:56:38.388Z,15.63
2024-01-09T11:59:09.144Z,17.02
2024-01-09T12:01:36.262Z,17.23
2024-01-09T12:04:03.864Z,16.65
2024-01-09T12:06:31.128Z,15.65
2024-01-09T12:08:58.465Z,16.27
2024-01-09T12:11:25.513Z,15.43
2024-01-09T12:14:04.413Z,16.92
2024-01-09T12:16:32.537Z,16.15
2024-01-09T12:19:00.082Z,15.52
2024-01-09T12:21:35.135Z,16.20
2024-01-09T12:24:20.289Z,16.75
2024-01-09T12:26:50.925Z,15.00
2024-01-09T12:29:18.030Z,16.98
2024-01-09T12:31:45.337Z,16.92
2024-01-09T12:34:12.561Z,17.45
2024-01-09T12:36:41.179Z,17.33
2024-01-09T12:39:14.228Z,17.90
2024-01-09T12:41:41.575Z,17.33
2024-01-09T12:44:14.499Z,16.83
2024-01-09T12:46:48.770Z,16.98
2024-01-09T12:49:16.059Z,16.98
2024-01-09T12:51:43.236Z,17.23
2024-01-09T12:54:17.477Z,16.50
2024-01-09T12:56:45.486Z,17.15
2024-01-09T12:59:13.415Z,17.20
2024-01-09T13:01:40.752Z,17.20
2024-01-09T13:04:07.587Z,16.65
2024-01-09T13:06:34.720Z,17.23
2024-01-09T13:09:02.053Z,17.10
2024-01-09T13:11:29.022Z,16.50
2024-01-09T13:13:56.336Z,17.98
2024-01-09T13:16:23.516Z,17.35
2024-01-09T13:18:50.476Z,17.50
2024-01-09T13:21:18.668Z,18.83
2024-01-09T13:23:50.223Z,18.73
2024-01-09T13:26:20.183Z,16.83
2024-01-09T13:31:18.885Z,16.85
2024-01-09T13:33:45.710Z,18.00
2024-01-09T13:36:17.816Z,17.17
2024-01-09T13:38:47.156Z,18.95
2024-01-09T13:41:17.524Z,19.27
2024-01-09T13:43:44.511Z,17.15
2024-01-09T13:46:16.197Z,18.63
2024-01-09T13:48:48.205Z,17.65
2024-01-09T13:53:45.252Z,18.35
2024-01-09T13:56:13.572Z,16.92
2024-01-09T13:58:40.837Z,18.20
2024-01-09T14:01:07.834Z,18.92
2024-01-09T14:03:35.046Z,16.55
2024-01-09T14:06:02.163Z,17.85
2024-01-09T14:08:29.232Z,18.13
2024-01-09T14:10:56.386Z,17.98
2024-01-09T14:13:23.188Z,19.05
2024-01-09T14:15:53.279Z,17.58
2024-01-09T14:18:23.206Z,18.13
2024-01-09T14:20:50.042Z,17.90
2024-01-09T14:23:16.905Z,18.58
2024-01-09T14:25:46.679Z,17.90
2024-01-09T14:28:13.815Z,18.10
2024-01-09T14:30:40.729Z,19.15
2024-01-09T14:33:07.698Z,18.35
2024-01-09T14:35:35.080Z,17.60
2024-01-09T14:38:02.162Z,19.05
2024-01-09T14:40:30.299Z,20.10
2024-01-09T14:42:57.667Z,18.20
2024-01-09T14:45:24.463Z,19.08
2024-01-09T14:47:51.332Z,19.60
2024-01-09T14:50:18.244Z,19.27
2024-01-09T14:52:45.554Z,18.13
2024-01-09T14:55:12.453Z,20.10
2024-01-09T14:57:40.637Z,18.88
2024-01-09T15:00:12.592Z,19.60
2024-01-09T15:02:39.608Z,18.20
2024-01-09T15:05:07.313Z,17.42
2024-01-09T15:07:34.334Z,18.58
2024-01-09T15:10:01.420Z,18.25
2024-01-09T15:12:31.362Z,18.73
2024-01-09T15:14:58.588Z,18.73
2024-01-09T15:17:25.570Z,17.67
2024-01-09T15:19:52.911Z,18.65
2024-01-09T15:22:19.825Z,19.58
2024-01-09T15:24:46.632Z,19.48
2024-01-09T15:27:13.643Z,19.75
2024-01-09T15:29:42.497Z,19.10
2024-01-09T15:32:10.085Z,19.83
2024-01-09T15:34:37.326Z,19.70
2024-01-09T15:37:04.426Z,17.67
2024-01-09T15:39:32.191Z,19.30
2024-01-09T15:41:59.517Z,18.80
2024-01-09T15:44:26.359Z,19.95
2024-01-09T15:46:54.947Z,18.40
2024-01-09T15:49:21.910Z,18.80
2024-01-09T15:51:48.916Z,19.90
2024-01-09T15:54:15.841Z,20.60
2024-01-09T15:56:43.503Z,18.00
2024-01-09T15:59:10.727Z,19.55
2024-01-09T16:01:37.709Z,19.90
2024-01-09T16:04:04.722Z,19.75
2024-01-09T16:06:33.933Z,19.10
2024-01-09T16:09:00.933Z,19.77
2024-01-09T16:11:27.784Z,20.13
2024-01-09T16:13:56.134Z,19.42
2024-01-09T16:16:23.200Z,18.92
2024-01-09T16:18:50.346Z,19.58
2024-01-09T16:21:17.217Z,20.90
2024-01-09T16:23:45.259Z,19.58
2024-01-09T16:26:13.037Z,19.70
2024-01-09T16:28:40.029Z,21.00
2024-01-09T16:31:07.220Z,20.80
2024-01-09T16:33:34.722Z,21.65
2024-01-09T16:36:01.789Z,19.55
2024-01-09T16:38:28.569Z,20.88
2024-01-09T16:40:55.500Z,21.88
2024-01-09T16:43:25.626Z,22.52
2024-01-09T16:45:52.547Z,19.60
2024-01-09T16:48:28.795Z,20.88
2024-01-09T16:51:02.488Z,21.15
2024-01-09T16:53:29.794Z,20.75
2024-01-09T16:55:57.219Z,21.17
2024-01-09T16:58:24.186Z,21.60
2024-01-09T17:00:51.282Z,21.95
2024-01-09T17:03:18.185Z,22.55
2024-01-09T17:05:45.362Z,21.08
2024-01-09T17:08:12.719Z,21.13
2024-01-09T17:10:39.631Z,20.60
2024-01-09T17:13:06.674Z,19.60
2024-01-09T17:15:33.530Z,21.92
2024-01-09T17:18:05.213Z,23.15
2024-01-09T17:20:32.339Z,21.38
2024-01-09T17:22:59.499Z,23.23
2024-01-09T17:25:29.902Z,22.95
2024-01-09T17:28:05.593Z,22.45
2024-01-09T17:30:32.806Z,22.52
2024-01-09T17:33:01.023Z,22.10
2024-01-09T17:35:27.856Z,20.67
2024-01-09T17:37:54.733Z,22.30
2024-01-09T17:40:21.640Z,23.30
2024-01-09T17:42:48.647Z,21.67
2024-01-09T17:45:17.969Z,23.02
2024-01-09T17:47:49.129Z,22.45
2024-01-09T17:50:17.104Z,23.25
2024-01-09T17:52:44.327Z,22.63
2024-01-09T17:55:11.101Z,21.95
2024-01-09T17:57:39.140Z,21.35
2024-01-09T18:00:08.131Z,21.45
2024-01-09T18:02:35.959Z,21.58
2024-01-09T18:05:02.818Z,23.10
2024-01-09T18:07:30.401Z,24.70
2024-01-09T18:09:57.224Z,21.85
2024-01-09T18:12:24.055Z,23.38
2024-01-09T18:14:50.811Z,24.15
2024-01-09T18:17:18.127Z,23.95
2024-01-09T18:19:45.011Z,24.52
2024-01-09T18:22:11.884Z,25.60
2024-01-09T18:24:41.895Z,24.38
2024-01-09T18:27:08.868Z,25.40
2024-01-09T18:29:35.846Z,24.48
2024-01-09T18:32:03.401Z,23.75
2024-01-09T18:34:30.702Z,25.35
2024-01-09T18:36:57.975Z,23.50
2024-01-09T18:39:27.863Z,24.00
2024-01-09T18:41:58.930Z,23.20
2024-01-09T18:44:26.978Z,25.05
2024-01-09T18:46:54.118Z,23.45
2024-01-09T18:49:21.592Z,23.58
2024-01-09T18:51:49.547Z,24.67
2024-01-09T18:54:16.943Z,22.00
2024-01-09T18:56:46.868Z,23.27
2024-01-09T18:59:16.406Z,24.10
2024-01-09T19:01:47.605Z,24.13
2024-01-09T19:04:23.524Z,24.42
2024-01-09T19:06:50.517Z,24.38
2024-01-09T19:09:27.468Z,36.88
2024-01-09T19:11:54.338Z,28.85
2024-01-09T19:14:27.332Z,22.85
2024-01-09T19:16:56.180Z,23.13
2024-01-09T19:19:23.112Z,24.60
2024-01-09T19:21:54.867Z,22.77
2024-01-09T19:24:22.671Z,23.58
2024-01-09T19:26:49.655Z,22.67
2024-01-09T19:29:20.437Z,22.48
2024-01-09T19:31:47.651Z,23.52
2024-01-09T19:34:14.820Z,23.63
2024-01-09T19:36:45.961Z,25.77
2024-01-09T19:39:12.896Z,24.20
2024-01-09T19:41:40.048Z,24.17
2024-01-09T19:44:10.084Z,24.05
2024-01-09T19:46:42.352Z,23.63
2024-01-09T19:49:09.822Z,23.95
2024-01-09T19:51:36.901Z,22.20
2024-01-09T19:54:03.892Z,23.02
2024-01-09T19:56:33.643Z,23.35
2024-01-09T19:59:01.160Z,23.85
2024-01-09T20:01:29.768Z,21.73
2024-01-09T20:03:56.949Z,24.75
2024-01-09T20:06:27.340Z,22.98
2024-01-09T20:08:54.893Z,23.10
2024-01-09T20:11:26.914Z,23.88
2024-01-09T20:14:00.663Z,24.48
2024-01-09T20:16:28.458Z,23.63
2024-01-09T20:18:55.521Z,22.75
2024-01-09T20:21:32.425Z,23.60
2024-01-09T20:23:59.686Z,22.83
2024-01-09T20:26:28.049Z,23.45
2024-01-09T20:28:55.524Z,25.55
2024-01-09T20:31:22.637Z,23.75
2024-01-09T20:33:54.827Z,23.33
2024-01-09T20:36:23.150Z,23.00
2024-01-09T20:38:50.038Z,22.67
2024-01-09T20:41:17.077Z,23.35
2024-01-09T20:43:43.994Z,22.80
2024-01-09T20:46:10.810Z,21.80
2024-01-09T20:48:38.107Z,23.30
2024-01-09T20:51:05.642Z,21.40
2024-01-09T20:53:33.180Z,23.58
2024-01-09T20:56:02.667Z,22.13
2024-01-09T20:58:29.721Z,23.20
2024-01-09T21:00:56.786Z,24.25
2024-01-09T21:03:26.767Z,24.40
2024-01-09T21:05:53.828Z,23.80
2024-01-09T21:08:20.828Z,23.83
2024-01-09T21:10:47.738Z,24.70
2024-01-09T21:13:17.623Z,23.70
2024-01-09T21:15:44.944Z,23.42
2024-01-09T21:18:12.947Z,22.65
2024-01-09T21:20:40.443Z,22.75
2024-01-09T21:23:07.523Z,24.30
2024-01-09T21:25:35.132Z,24.88
2024-01-09T21:28:02.148Z,21.80
2024-01-09T21:30:29.322Z,22.50
2024-01-09T21:32:56.285Z,23.10
2024-01-09T21:35:23.221Z,23.02
2024-01-09T21:38:08.788Z,23.98
2024-01-09T21:40:44.365Z,24.50
2024-01-09T21:43:19.583Z,25.33
2024-01-09T21:45:46.352Z,25.40
2024-01-09T21:48:13.692Z,25.25
2024-01-09T21:50:40.611Z,23.13
2024-01-09T21:53:10.247Z,23.75
2024-01-09T21:55:37.099Z,24.70
2024-01-09T21:58:05.072Z,23.30
2024-01-09T22:00:31.878Z,21.65
2024-01-09T22:02:58.692Z,24.58
2024-01-09T22:05:25.544Z,22.83
2024-01-09T22:07:52.389Z,22.92
2024-01-09T22:10:19.225Z,22.00
2024-01-09T22:12:46.284Z,21.85
2024-01-09T22:15:13.270Z,24.55
2024-01-09T22:17:41.185Z,23.58
2024-01-09T22:20:09.453Z,23.30
2024-01-09T22:22:36.304Z,22.13
2024-01-09T22:25:03.494Z,22.40
2024-01-09T22:27:30.465Z,22.85
2024-01-09T22:29:57.471Z,21.75
2024-01-09T22:32:24.404Z,23.42
2024-01-09T22:34:51.402Z,22.88
2024-01-09T22:37:18.118Z,22.55
2024-01-09T22:39:46.560Z,22.00
2024-01-09T22:42:13.353Z,23.73
2024-01-09T22:44:40.450Z,24.77
2024-01-09T22:47:07.397Z,22.95
2024-01-09T22:49:34.229Z,23.08
2024-01-09T22:52:01.074Z,22.75
2024-01-09T22:54:27.863Z,23.73
2024-01-09T22:56:54.671Z,22.88
2024-01-09T22:59:21.778Z,22.30
2024-01-09T23:01:54.705Z,21.88
2024-01-09T23:04:21.827Z,22.42
2024-01-09T23:06:48.730Z,21.65
2024-01-09T23:09:15.854Z,22.10
2024-01-09T23:11:42.622Z,24.63
2024-01-09T23:14:09.639Z,23.67
2024-01-09T23:16:36.546Z,22.98
2024-01-09T23:19:03.536Z,22.63
2024-01-09T23:21:30.499Z,24.45
2024-01-09T23:23:57.463Z,21.20
2024-01-09T23:26:24.302Z,23.50
2024-01-09T23:28:51.178Z,24.08
2024-01-09T23:31:18.453Z,23.92
2024-01-09T23:33:45.595Z,24.63
2024-01-09T23:36:15.442Z,26.13
2024-01-09T23:38:42.233Z,24.65
2024-01-09T23:41:09.388Z,26.60
2024-01-09T23:43:36.506Z,24.27
2024-01-09T23:46:03.385Z,24.50
2024-01-09T23:48:30.339Z,25.75
2024-01-09T23:51:00.996Z,25.77
2024-01-09T23:53:28.014Z,23.52
2024-01-09T23:55:54.846Z,24.13
2024-01-09T23:58:21.972Z,25.38
